createdAt,value
2022-11-16T00:01:33.148Z,10.13
2022-11-16T00:04:02.022Z,10.27
2022-11-16T00:06:29.162Z,10.11
2022-11-16T00:09:21.019Z,10.32
2022-11-16T00:11:58.286Z,10.17
2022-11-16T00:14:27.608Z,10.37
2022-11-16T00:16:54.602Z,10.24
2022-11-16T00:19:25.261Z,10.41
2022-11-16T00:21:55.427Z,10.24
2022-11-16T00:24:23.503Z,10.31
2022-11-16T00:26:53.267Z,10.12
2022-11-16T00:29:22.986Z,10.35
2022-11-16T00:31:54.305Z,10.26
2022-11-16T00:34:24.124Z,10.31
2022-11-16T00:36:54.495Z,10.33
2022-11-16T00:39:24.312Z,10.37
2022-11-16T00:41:54.770Z,10.20
2022-11-16T00:44:22.554Z,10.28
2022-11-16T00:46:49.177Z,10.32
2022-11-16T00:49:16.167Z,10.27
2022-11-16T00:51:42.725Z,10.26
2022-11-16T00:54:09.581Z,10.42
2022-11-16T00:56:37.080Z,10.59
2022-11-16T00:59:03.964Z,10.49
2022-11-16T01:01:30.677Z,10.51
2022-11-16T01:03:57.284Z,10.31
2022-11-16T01:06:26.767Z,10.43
2022-11-16T01:08:56.109Z,10.51
2022-11-16T01:11:41.388Z,10.34
2022-11-16T01:14:09.253Z,10.62
2022-11-16T01:16:36.411Z,10.70
2022-11-16T01:19:06.406Z,10.60
2022-11-16T01:21:33.843Z,10.38
2022-11-16T01:24:00.454Z,10.36
2022-11-16T01:26:27.082Z,10.48
2022-11-16T01:28:57.237Z,10.33
2022-11-16T01:31:27.051Z,10.68
2022-11-16T01:33:57.255Z,10.60
2022-11-16T01:36:28.065Z,10.41
2022-11-16T01:38:57.692Z,10.44
2022-11-16T01:41:26.662Z,10.52
2022-11-16T01:43:58.794Z,10.60
2022-11-16T01:46:29.641Z,10.45
2022-11-16T01:49:06.665Z,10.35
2022-11-16T01:51:34.196Z,10.42
2022-11-16T01:54:03.008Z,10.42
2022-11-16T01:56:32.575Z,10.40
2022-11-16T01:58:59.341Z,10.39
2022-11-16T02:01:29.496Z,10.26
2022-11-16T02:04:01.738Z,10.10
2022-11-16T02:06:28.271Z,10.15
2022-11-16T02:09:47.077Z,10.06
2022-11-16T02:12:45.400Z,9.97
2022-11-16T02:15:21.302Z,10.13
2022-11-16T02:18:21.483Z,10.07
2022-11-16T02:20:50.994Z,9.98
2022-11-16T02:23:36.103Z,10.01
2022-11-16T02:26:35.902Z,9.91
2022-11-16T02:29:29.288Z,9.83
2022-11-16T02:32:05.177Z,9.71
2022-11-16T02:34:36.926Z,9.33
2022-11-16T02:37:07.198Z,9.41
2022-11-16T02:39:36.963Z,9.24
2022-11-16T02:42:08.252Z,9.49
2022-11-16T02:44:40.231Z,9.41
2022-11-16T02:47:11.775Z,9.15
2022-11-16T02:49:44.287Z,9.35
2022-11-16T02:52:13.731Z,9.35
2022-11-16T02:54:40.300Z,9.34
2022-11-16T02:57:06.752Z,9.39
2022-11-16T02:59:36.224Z,9.30
2022-11-16T03:02:09.769Z,8.97
2022-11-16T03:04:43.133Z,9.02
2022-11-16T03:07:12.680Z,9.06
2022-11-16T03:09:42.275Z,8.98
2022-11-16T03:12:14.201Z,8.71
2022-11-16T03:14:56.012Z,8.69
2022-11-16T03:17:30.289Z,9.02
2022-11-16T03:20:03.198Z,9.20
2022-11-16T03:22:39.381Z,9.31
2022-11-16T03:25:07.267Z,9.06
2022-11-16T03:28:07.237Z,9.24
2022-11-16T03:30:39.852Z,9.24
2022-11-16T03:33:14.047Z,9.33
2022-11-16T03:35:56.731Z,9.33
2022-11-16T03:38:26.134Z,9.41
2022-11-16T03:40:57.621Z,9.31
2022-11-16T03:43:25.713Z,9.26
2022-11-16T03:45:53.224Z,9.04
2022-11-16T03:48:19.903Z,9.00
2022-11-16T03:50:46.618Z,9.19
2022-11-16T03:53:13.213Z,9.11
2022-11-16T03:55:39.761Z,9.16
2022-11-16T03:58:06.423Z,9.03
2022-11-16T04:00:36.262Z,8.99
2022-11-16T04:03:06.003Z,9.19
2022-11-16T04:05:53.908Z,9.17
2022-11-16T04:08:39.005Z,9.40
2022-11-16T04:11:24.797Z,9.33
2022-11-16T04:14:10.332Z,9.18
2022-11-16T04:16:55.262Z,9.11
2022-11-16T04:19:40.607Z,9.14
2022-11-16T04:22:36.018Z,9.15
2022-11-16T04:25:12.007Z,9.00
2022-11-16T04:28:16.941Z,8.96
2022-11-16T04:31:07.707Z,8.85
2022-11-16T04:33:55.473Z,9.18
2022-11-16T04:36:40.986Z,9.16
2022-11-16T04:39:07.835Z,9.14
2022-11-16T04:41:54.811Z,9.05
2022-11-16T04:44:24.693Z,8.79
2022-11-16T04:47:08.917Z,8.59
2022-11-16T04:49:38.376Z,8.81
2022-11-16T04:52:08.968Z,8.90
2022-11-16T04:54:38.694Z,8.70
2022-11-16T04:57:06.979Z,8.82
2022-11-16T04:59:33.504Z,8.69
2022-11-16T05:02:09.133Z,8.80
2022-11-16T05:04:44.872Z,8.83
2022-11-16T05:07:13.997Z,9.06
2022-11-16T05:09:45.014Z,8.95
2022-11-16T05:12:17.664Z,9.09
2022-11-16T05:14:44.530Z,8.77
2022-11-16T05:17:11.743Z,8.76
2022-11-16T05:19:59.561Z,8.74
2022-11-16T05:22:26.462Z,9.06
2022-11-16T05:24:53.294Z,9.06
2022-11-16T05:27:21.653Z,9.02
2022-11-16T05:29:49.771Z,8.73
2022-11-16T05:32:16.602Z,8.60
2022-11-16T05:34:43.209Z,8.79
2022-11-16T05:37:10.086Z,8.72
2022-11-16T05:39:39.268Z,8.80
2022-11-16T05:42:10.369Z,8.86
2022-11-16T05:44:39.998Z,8.82
2022-11-16T05:47:06.568Z,8.52
2022-11-16T05:49:33.161Z,8.43
2022-11-16T05:51:59.767Z,8.52
2022-11-16T05:54:26.551Z,8.47
2022-11-16T05:56:54.851Z,8.70
2022-11-16T05:59:22.783Z,8.71
2022-11-16T06:01:50.364Z,8.63
2022-11-16T06:06:58.151Z,8.80
2022-11-16T06:09:24.729Z,9.19
2022-11-16T06:11:51.520Z,8.98
2022-11-16T06:14:18.043Z,9.19
2022-11-16T06:16:44.549Z,8.83
2022-11-16T06:19:13.777Z,9.04
2022-11-16T06:21:43.142Z,9.01
2022-11-16T06:24:13.327Z,9.15
2022-11-16T06:26:41.096Z,9.07
2022-11-16T06:29:07.662Z,8.86
2022-11-16T06:31:34.245Z,9.19
2022-11-16T06:34:00.874Z,9.07
2022-11-16T06:36:27.494Z,8.75
2022-11-16T06:38:54.057Z,8.72
2022-11-16T06:41:20.937Z,8.72
2022-11-16T06:43:47.549Z,8.79
2022-11-16T06:46:14.267Z,8.87
2022-11-16T06:48:41.085Z,8.92
2022-11-16T06:51:08.125Z,9.16
2022-11-16T06:53:35.146Z,8.91
2022-11-16T06:56:06.169Z,9.14
2022-11-16T06:58:33.525Z,9.18
2022-11-16T07:01:14.171Z,9.22
2022-11-16T07:03:43.053Z,9.23
2022-11-16T07:06:14.788Z,9.14
2022-11-16T07:08:43.514Z,9.23
2022-11-16T07:11:12.027Z,9.08
2022-11-16T07:13:39.182Z,9.14
2022-11-16T07:16:12.255Z,9.44
2022-11-16T07:18:45.183Z,9.48
2022-11-16T07:21:14.878Z,9.79
2022-11-16T07:23:45.897Z,9.72
2022-11-16T07:26:15.345Z,9.69
2022-11-16T07:28:48.104Z,9.59
2022-11-16T07:31:16.178Z,9.79
2022-11-16T07:33:43.710Z,9.57
2022-11-16T07:36:17.254Z,9.67
2022-11-16T07:38:47.255Z,9.75
2022-11-16T07:41:17.406Z,9.88
2022-11-16T07:43:52.756Z,9.87
2022-11-16T07:46:45.899Z,10.15
2022-11-16T07:49:11.396Z,10.34
2022-11-16T07:51:38.373Z,10.56
2022-11-16T07:54:06.740Z,10.47
2022-11-16T07:56:33.588Z,10.45
2022-11-16T07:59:01.609Z,11.13
2022-11-16T08:01:28.447Z,12.21
2022-11-16T08:03:55.221Z,13.18
2022-11-16T08:06:25.576Z,14.15
2022-11-16T08:08:57.832Z,14.61
2022-11-16T08:11:25.361Z,14.72
2022-11-16T08:13:52.287Z,14.43
2022-11-16T08:16:21.497Z,14.08
2022-11-16T08:18:48.487Z,13.46
2022-11-16T08:21:16.475Z,12.88
2022-11-16T08:23:45.391Z,12.69
2022-11-16T08:26:19.732Z,12.58
2022-11-16T08:28:47.860Z,12.27
2022-11-16T08:31:21.090Z,12.19
2022-11-16T08:33:48.141Z,12.03
2022-11-16T08:36:18.811Z,11.82
2022-11-16T08:38:48.164Z,11.61
2022-11-16T08:41:16.505Z,11.72
2022-11-16T08:43:45.200Z,11.66
2022-11-16T08:46:11.792Z,11.70
2022-11-16T08:48:39.062Z,11.74
2022-11-16T08:51:21.326Z,11.74
2022-11-16T08:53:49.470Z,11.65
2022-11-16T08:56:18.436Z,11.70
2022-11-16T08:58:50.301Z,11.70
2022-11-16T09:01:21.810Z,11.64
2022-11-16T09:04:24.686Z,11.68
2022-11-16T09:06:52.948Z,11.38
2022-11-16T09:09:19.544Z,11.48
2022-11-16T09:11:46.138Z,11.53
2022-11-16T09:14:15.242Z,11.54
2022-11-16T09:16:41.925Z,11.48
2022-11-16T09:19:08.558Z,11.54
2022-11-16T09:21:37.561Z,11.76
2022-11-16T09:24:04.537Z,11.79
2022-11-16T09:26:31.460Z,11.96
2022-11-16T09:29:00.845Z,12.02
2022-11-16T09:31:29.405Z,12.13
2022-11-16T09:33:58.867Z,12.35
2022-11-16T09:36:28.294Z,12.53
2022-11-16T09:39:25.931Z,12.76
2022-11-16T09:41:50.646Z,12.67
2022-11-16T09:44:34.404Z,12.64
2022-11-16T09:47:02.252Z,12.78
2022-11-16T09:49:38.175Z,12.67
2022-11-16T09:52:10.791Z,12.55
2022-11-16T09:54:43.981Z,12.55
2022-11-16T09:57:16.759Z,12.50
2022-11-16T09:59:49.988Z,12.44
2022-11-16T10:02:32.525Z,12.33
2022-11-16T10:05:08.221Z,12.50
2022-11-16T10:07:52.661Z,12.45
2022-11-16T10:10:36.113Z,12.71
2022-11-16T10:13:39.851Z,12.84
2022-11-16T10:16:45.368Z,12.84
2022-11-16T10:19:39.658Z,13.19
2022-11-16T10:22:21.682Z,13.44
2022-11-16T10:25:07.160Z,14.61
2022-11-16T10:27:55.525Z,15.60
2022-11-16T10:30:23.126Z,15.94
2022-11-16T10:32:53.691Z,15.81
2022-11-16T10:35:29.844Z,15.97
2022-11-16T10:37:59.501Z,16.19
2022-11-16T10:40:36.187Z,16.30
2022-11-16T10:43:16.193Z,16.13
2022-11-16T10:46:20.267Z,16.20
2022-11-16T10:48:58.604Z,17.02
2022-11-16T10:51:25.246Z,17.21
2022-11-16T10:53:53.206Z,16.78
2022-11-16T10:56:25.774Z,17.26
2022-11-16T10:58:55.612Z,17.67
2022-11-16T11:01:44.862Z,18.05
2022-11-16T11:04:28.962Z,18.15
2022-11-16T11:06:58.760Z,18.32
2022-11-16T11:09:34.713Z,18.44
2022-11-16T11:12:53.848Z,18.39
2022-11-16T11:15:27.123Z,18.44
2022-11-16T11:18:15.819Z,18.74
2022-11-16T11:20:46.877Z,18.90
2022-11-16T11:23:17.928Z,19.05
2022-11-16T11:25:54.934Z,19.15
2022-11-16T11:28:21.466Z,19.14
2022-11-16T11:31:11.606Z,18.44
2022-11-16T11:33:46.004Z,18.30
2022-11-16T11:36:25.220Z,18.40
2022-11-16T11:39:16.597Z,19.03
2022-11-16T11:41:46.279Z,19.05
2022-11-16T11:44:15.130Z,18.91
2022-11-16T11:49:52.316Z,18.05
2022-11-16T11:52:32.189Z,18.65
2022-11-16T11:55:00.422Z,19.56
2022-11-16T11:57:26.993Z,20.16
2022-11-16T11:59:54.729Z,19.89
2022-11-16T12:02:46.893Z,19.97
2022-11-16T12:05:47.726Z,19.98
2022-11-16T12:08:41.832Z,20.13
2022-11-16T12:11:46.036Z,20.21
2022-11-16T12:14:37.495Z,19.63
2022-11-16T12:17:21.059Z,18.72
2022-11-16T12:20:00.692Z,18.80
2022-11-16T12:23:03.742Z,18.54
2022-11-16T12:25:47.392Z,18.23
2022-11-16T12:28:35.111Z,17.91
2022-11-16T12:31:06.094Z,18.31
2022-11-16T12:33:53.949Z,18.70
2022-11-16T12:36:58.702Z,19.36
2022-11-16T12:39:31.176Z,20.01
2022-11-16T12:42:12.535Z,20.23
2022-11-16T12:45:31.851Z,20.24
2022-11-16T12:48:20.707Z,19.77
2022-11-16T12:51:09.074Z,19.07
2022-11-16T12:53:47.619Z,19.03
2022-11-16T12:56:36.452Z,19.07
2022-11-16T12:59:32.345Z,19.03
2022-11-16T13:02:28.155Z,18.98
2022-11-16T13:05:02.021Z,18.32
2022-11-16T13:07:37.023Z,17.89
2022-11-16T13:10:30.408Z,17.55
2022-11-16T13:15:53.271Z,17.32
2022-11-16T13:18:23.129Z,17.46
2022-11-16T13:21:06.798Z,18.37
2022-11-16T13:24:02.778Z,18.88
2022-11-16T13:26:56.019Z,19.52
2022-11-16T13:29:30.424Z,20.01
2022-11-16T13:32:03.277Z,19.47
2022-11-16T13:34:35.773Z,18.72
2022-11-16T13:37:34.185Z,18.38
2022-11-16T13:40:00.751Z,18.02
2022-11-16T13:42:28.192Z,17.79
2022-11-16T13:45:07.100Z,17.40
2022-11-16T13:47:34.645Z,17.33
2022-11-16T13:50:16.334Z,17.06
2022-11-16T13:55:35.763Z,17.08
2022-11-16T13:58:07.635Z,17.47
2022-11-16T14:00:40.393Z,18.15
2022-11-16T14:03:16.034Z,18.16
2022-11-16T14:05:52.301Z,17.90
2022-11-16T14:08:24.799Z,17.62
2022-11-16T14:10:51.732Z,17.30
2022-11-16T14:13:30.504Z,17.24
2022-11-16T14:16:15.306Z,17.08
2022-11-16T14:18:43.429Z,16.90
2022-11-16T14:21:46.054Z,16.61
2022-11-16T14:24:26.501Z,16.38
2022-11-16T14:27:08.473Z,16.08
2022-11-16T14:29:46.836Z,15.80
2022-11-16T14:32:24.663Z,15.54
2022-11-16T14:34:54.674Z,15.42
2022-11-16T14:37:30.377Z,15.15
2022-11-16T14:40:17.217Z,14.88
2022-11-16T14:43:15.371Z,14.91
2022-11-16T14:45:48.578Z,14.91
2022-11-16T14:48:23.833Z,15.00
2022-11-16T14:51:02.242Z,14.79
2022-11-16T14:53:29.853Z,14.59
2022-11-16T14:56:14.623Z,14.68
2022-11-16T14:58:57.251Z,14.82
2022-11-16T15:01:38.476Z,14.93
2022-11-16T15:04:09.400Z,14.99
2022-11-16T15:06:49.166Z,14.74
2022-11-16T15:09:28.713Z,14.60
2022-11-16T15:12:14.682Z,14.52
2022-11-16T15:14:54.500Z,14.47
2022-11-16T15:17:30.071Z,14.44
2022-11-16T15:20:16.366Z,14.35
2022-11-16T15:22:45.835Z,14.08
2022-11-16T15:25:31.407Z,14.32
2022-11-16T15:28:03.641Z,14.28
2022-11-16T15:30:34.418Z,14.34
2022-11-16T15:33:10.820Z,14.15
2022-11-16T15:35:38.803Z,14.01
2022-11-16T15:38:13.849Z,14.07
2022-11-16T15:40:45.064Z,14.09
2022-11-16T15:43:13.473Z,14.20
2022-11-16T15:45:42.757Z,14.15
2022-11-16T15:48:19.019Z,14.18
2022-11-16T15:51:14.844Z,14.00
2022-11-16T15:53:47.202Z,14.23
2022-11-16T15:56:25.712Z,14.05
2022-11-16T15:58:58.086Z,13.82
2022-11-16T16:01:29.390Z,13.91
2022-11-16T16:04:02.911Z,13.82
2022-11-16T16:06:56.880Z,13.60
2022-11-16T16:09:26.320Z,13.54
2022-11-16T16:11:55.634Z,13.45
2022-11-16T16:14:31.276Z,13.27
2022-11-16T16:16:59.679Z,13.42
2022-11-16T16:19:55.421Z,13.44
2022-11-16T16:22:33.860Z,13.32
2022-11-16T16:25:04.227Z,13.17
2022-11-16T16:27:32.585Z,13.03
2022-11-16T16:30:04.934Z,13.07
2022-11-16T16:32:34.464Z,13.05
2022-11-16T16:35:03.881Z,12.94
2022-11-16T16:37:32.187Z,12.88
2022-11-16T16:39:59.784Z,12.99
2022-11-16T16:42:26.582Z,12.95
2022-11-16T16:44:59.542Z,13.07
2022-11-16T16:47:26.286Z,12.87
2022-11-16T16:49:56.654Z,12.95
2022-11-16T16:52:25.873Z,12.81
2022-11-16T16:54:56.479Z,12.96
2022-11-16T16:57:26.497Z,12.80
2022-11-16T16:59:56.772Z,12.73
2022-11-16T17:02:27.784Z,12.85
2022-11-16T17:04:55.101Z,12.78
2022-11-16T17:07:24.857Z,12.84
2022-11-16T17:09:55.967Z,12.86
2022-11-16T17:12:26.050Z,13.15
2022-11-16T17:14:56.875Z,13.10
2022-11-16T17:17:25.300Z,12.90
2022-11-16T17:19:56.633Z,12.91
2022-11-16T17:22:25.874Z,12.70
2022-11-16T17:24:54.507Z,12.61
2022-11-16T17:27:21.252Z,12.62
2022-11-16T17:29:47.782Z,12.66
2022-11-16T17:32:14.429Z,12.79
2022-11-16T17:34:41.526Z,12.74
2022-11-16T17:37:08.148Z,12.66
2022-11-16T17:39:35.418Z,12.81
2022-11-16T17:42:02.095Z,12.74
2022-11-16T17:44:30.915Z,12.69
2022-11-16T17:46:57.832Z,12.69
2022-11-16T17:49:27.422Z,12.61
2022-11-16T17:51:59.932Z,12.28
2022-11-16T17:54:26.499Z,12.31
2022-11-16T17:56:55.041Z,12.27
2022-11-16T17:59:28.998Z,12.24
2022-11-16T18:01:57.660Z,12.49
2022-11-16T18:04:25.311Z,12.33
2022-11-16T18:06:52.523Z,12.42
2022-11-16T18:09:19.224Z,12.13
2022-11-16T18:11:45.786Z,12.22
2022-11-16T18:14:12.348Z,12.35
2022-11-16T18:16:42.333Z,12.22
2022-11-16T18:19:20.957Z,12.29
2022-11-16T18:21:48.809Z,12.18
2022-11-16T18:24:15.314Z,12.44
2022-11-16T18:26:42.258Z,12.32
2022-11-16T18:29:12.735Z,12.38
2022-11-16T18:31:40.249Z,12.36
2022-11-16T18:34:06.964Z,12.49
2022-11-16T18:36:33.856Z,12.50
2022-11-16T18:39:00.389Z,12.51
2022-11-16T18:41:29.857Z,12.51
2022-11-16T18:44:01.159Z,12.62
2022-11-16T18:46:29.824Z,12.48
2022-11-16T18:48:56.804Z,12.39
2022-11-16T18:51:27.584Z,12.50
2022-11-16T18:53:57.757Z,12.43
2022-11-16T18:56:27.517Z,12.40
2022-11-16T18:59:00.985Z,12.30
2022-11-16T19:01:28.363Z,12.43
2022-11-16T19:03:58.031Z,12.34
2022-11-16T19:06:26.858Z,12.30
2022-11-16T19:08:59.588Z,12.24
2022-11-16T19:11:29.865Z,12.20
2022-11-16T19:14:03.912Z,12.34
2022-11-16T19:16:31.485Z,12.28
2022-11-16T19:18:58.875Z,12.26
2022-11-16T19:21:30.161Z,12.22
2022-11-16T19:23:57.916Z,12.21
2022-11-16T19:26:28.770Z,12.16
2022-11-16T19:28:58.943Z,12.19
2022-11-16T19:31:29.329Z,12.16
2022-11-16T19:33:57.791Z,12.18
2022-11-16T19:36:28.896Z,12.28
2022-11-16T19:38:59.235Z,12.13
2022-11-16T19:41:27.264Z,12.33
2022-11-16T19:43:58.984Z,12.25
2022-11-16T19:46:31.225Z,12.27
2022-11-16T19:48:58.830Z,12.43
2022-11-16T19:51:33.322Z,12.32
2022-11-16T19:54:01.436Z,12.43
2022-11-16T19:56:28.114Z,12.41
2022-11-16T19:58:57.692Z,12.48
2022-11-16T20:01:48.274Z,12.48
2022-11-16T20:04:16.215Z,12.72
2022-11-16T20:06:44.170Z,12.61
2022-11-16T20:09:12.208Z,12.70
2022-11-16T20:11:40.808Z,12.70
2022-11-16T20:14:10.436Z,12.59
2022-11-16T20:16:39.717Z,12.73
2022-11-16T20:19:10.115Z,12.87
2022-11-16T20:21:39.308Z,12.79
2022-11-16T20:24:08.958Z,12.68
2022-11-16T20:26:40.263Z,12.72
2022-11-16T20:29:06.845Z,12.71
2022-11-16T20:31:33.817Z,12.82
2022-11-16T20:34:05.384Z,12.70
2022-11-16T20:36:33.338Z,12.80
2022-11-16T20:39:03.080Z,12.70
2022-11-16T20:41:32.159Z,12.79
2022-11-16T20:44:00.208Z,12.77
2022-11-16T20:46:29.915Z,12.75
2022-11-16T20:49:01.789Z,12.79
2022-11-16T20:51:29.846Z,13.04
2022-11-16T20:53:59.552Z,12.85
2022-11-16T20:56:28.694Z,12.74
2022-11-16T20:58:59.195Z,12.89
2022-11-16T21:01:31.519Z,12.77
2022-11-16T21:04:06.329Z,12.89
2022-11-16T21:06:33.534Z,12.90
2022-11-16T21:09:00.482Z,12.76
2022-11-16T21:11:54.079Z,12.63
2022-11-16T21:14:21.126Z,12.81
2022-11-16T21:16:47.905Z,12.86
2022-11-16T21:19:15.064Z,12.88
2022-11-16T21:21:41.748Z,12.83
2022-11-16T21:24:09.636Z,13.00
2022-11-16T21:26:37.364Z,12.89
2022-11-16T21:29:04.388Z,12.84
2022-11-16T21:31:34.271Z,12.92
2022-11-16T21:34:01.375Z,12.98
2022-11-16T21:36:32.355Z,12.95
2022-11-16T21:39:01.665Z,12.85
2022-11-16T21:41:30.889Z,12.83
2022-11-16T21:44:00.539Z,12.89
2022-11-16T21:46:30.570Z,12.86
2022-11-16T21:49:01.643Z,13.09
2022-11-16T21:51:31.362Z,13.02
2022-11-16T21:54:01.050Z,13.15
2022-11-16T21:56:30.529Z,12.97
2022-11-16T21:58:59.412Z,13.03
2022-11-16T22:01:45.900Z,12.96
2022-11-16T22:04:30.927Z,12.91
2022-11-16T22:07:16.111Z,13.14
2022-11-16T22:09:42.775Z,12.98
2022-11-16T22:12:09.296Z,13.08
2022-11-16T22:14:35.822Z,13.12
2022-11-16T22:17:02.879Z,12.86
2022-11-16T22:19:32.553Z,13.01
2022-11-16T22:22:02.266Z,13.08
2022-11-16T22:24:31.121Z,13.00
2022-11-16T22:27:00.480Z,13.07
2022-11-16T22:29:27.370Z,12.93
2022-11-16T22:31:54.289Z,12.63
2022-11-16T22:34:21.202Z,12.98
2022-11-16T22:36:48.231Z,13.05
2022-11-16T22:39:15.210Z,13.07
2022-11-16T22:41:41.934Z,12.97
2022-11-16T22:44:08.515Z,13.05
2022-11-16T22:46:35.406Z,13.08
2022-11-16T22:49:05.051Z,12.92
2022-11-16T22:51:34.833Z,12.91
2022-11-16T22:54:05.375Z,12.88
2022-11-16T22:56:34.298Z,13.06
2022-11-16T22:59:05.729Z,12.96
2022-11-16T23:01:36.548Z,12.95
2022-11-16T23:04:03.903Z,13.24
2022-11-16T23:06:32.049Z,13.24
2022-11-16T23:08:58.701Z,13.18
2022-11-16T23:11:45.427Z,13.24
2022-11-16T23:14:33.435Z,13.56
2022-11-16T23:17:00.388Z,13.60
2022-11-16T23:19:46.570Z,13.63
2022-11-16T23:22:40.893Z,13.59
2022-11-16T23:25:29.284Z,13.67
2022-11-16T23:27:55.805Z,13.79
2022-11-16T23:30:23.414Z,13.80
2022-11-16T23:32:50.018Z,13.70
2022-11-16T23:35:16.968Z,13.79
2022-11-16T23:37:53.918Z,13.50
2022-11-16T23:40:22.783Z,13.79
2022-11-16T23:43:07.890Z,13.83
2022-11-16T23:45:34.659Z,13.68
2022-11-16T23:48:01.258Z,13.56
2022-11-16T23:50:27.873Z,13.73
2022-11-16T23:52:54.389Z,13.91
2022-11-16T23:55:23.074Z,13.86
2022-11-16T23:57:50.353Z,13.73
